Orbital elements of SL-8 R/B
| Launched | 22 November 1967 |
| Flight ended | – |
| Launch site | Plesetsk Missile and Space Complex, Russia |
| Owner | Commonwealth of Independent States (former USSR) |
| NORAD ID | 3048 |
| Date fetched |
Epoch osculation |
Inc. [°] |
Ecc. | RA asc node [hr] |
Arg Peri. [°] |
Mean anom [°] |
Mean motion [rev/day] |
Abs. mag |
| Date fetched |
Epoch osculation |
Inc. [°] |
Ecc. | RA asc node [hr] |
Arg Peri. [°] |
Mean anom [°] |
Mean motion [rev/day] |
Abs. mag |
| 2026 May 06 17:57 | 2026 May 05 11:24:36 | 74.0057 | 0.00061 | 19.4292 | 51.9152 | 320.0747 | 14.63371 | 6.243 |
| 2026 May 05 17:57 | 2026 May 05 11:24:36 | 74.0057 | 0.00061 | 19.4292 | 51.9152 | 320.0747 | 14.63371 | 6.243 |
| 2026 May 04 17:57 | 2026 Apr 30 15:10:09 | 74.0057 | 0.00059 | 20.0498 | 64.1431 | 320.0747 | 14.63371 | 6.243 |
| 2026 May 03 17:57 | 2026 Apr 30 15:10:09 | 74.0057 | 0.00059 | 20.0498 | 64.1431 | 320.0747 | 14.63371 | 6.243 |
| 2026 May 02 17:57 | 2026 Apr 30 15:10:09 | 74.0057 | 0.00059 | 20.0498 | 64.1431 | 320.0747 | 14.63371 | 6.243 |
| 2026 May 01 17:56 | 2026 Apr 30 15:10:09 | 74.0057 | 0.00059 | 20.0498 | 64.1431 | 320.0747 | 14.63371 | 6.243 |
| 2026 Apr 30 17:56 | 2026 Apr 30 15:10:09 | 74.0057 | 0.00059 | 20.0498 | 64.1431 | 320.0747 | 14.63371 | 6.243 |
| 2026 Apr 29 17:57 | 2026 Apr 24 13:07:38 | 74.0059 | 0.00059 | 20.8296 | 79.8770 | 320.0747 | 14.63371 | 6.243 |
| 2026 Apr 28 17:56 | 2026 Apr 24 13:07:38 | 74.0059 | 0.00059 | 20.8296 | 79.8770 | 320.0747 | 14.63371 | 6.243 |
| 2026 Apr 27 17:58 | 2026 Apr 24 13:07:38 | 74.0059 | 0.00059 | 20.8296 | 79.8770 | 320.0747 | 14.63371 | 6.243 |
| 2026 Apr 26 17:58 | 2026 Apr 24 13:07:38 | 74.0059 | 0.00059 | 20.8296 | 79.8770 | 320.0747 | 14.63371 | 6.243 |
| 2026 Apr 25 17:58 | 2026 Apr 24 13:07:38 | 74.0059 | 0.00059 | 20.8296 | 79.8770 | 320.0747 | 14.63371 | 6.243 |
| 2026 Apr 24 17:59 | 2026 Apr 24 13:07:38 | 74.0059 | 0.00059 | 20.8296 | 79.8770 | 320.0747 | 14.63371 | 6.243 |
| 2026 Apr 23 17:57 | 2026 Apr 19 13:09:33 | 74.0064 | 0.00059 | 21.4700 | 92.9298 | 320.0747 | 14.63371 | 6.243 |
| 2026 Apr 22 17:57 | 2026 Apr 19 13:09:33 | 74.0064 | 0.00059 | 21.4700 | 92.9298 | 320.0747 | 14.63371 | 6.243 |
| 2026 Apr 21 17:57 | 2026 Apr 19 13:09:33 | 74.0064 | 0.00059 | 21.4700 | 92.9298 | 320.0747 | 14.63371 | 6.243 |
| 2026 Apr 20 17:57 | 2026 Apr 19 13:09:33 | 74.0064 | 0.00059 | 21.4700 | 92.9298 | 320.0747 | 14.63371 | 6.243 |
| 2026 Apr 19 17:58 | 2026 Apr 19 13:09:33 | 74.0064 | 0.00059 | 21.4700 | 92.9298 | 320.0747 | 14.63371 | 6.243 |
| 2026 Apr 18 17:56 | 2026 Apr 13 01:52:41 | 74.0075 | 0.00060 | 22.2990 | 109.6860 | 320.0747 | 14.63371 | 6.243 |
| 2026 Apr 16 17:57 | 2026 Apr 13 01:52:41 | 74.0075 | 0.00060 | 22.2990 | 109.6860 | 320.0747 | 14.63371 | 6.243 |
| 2026 Apr 14 17:57 | 2026 Apr 13 01:52:41 | 74.0075 | 0.00060 | 22.2990 | 109.6860 | 320.0747 | 14.63371 | 6.243 |
| 2026 Apr 13 17:57 | 2026 Apr 13 01:52:41 | 74.0075 | 0.00060 | 22.2990 | 109.6860 | 320.0747 | 14.63371 | 6.243 |
| 2026 Apr 12 17:57 | 2026 Apr 08 10:25:55 | 74.0080 | 0.00061 | 22.8939 | 121.6506 | 320.0747 | 14.63371 | 6.243 |
| 2026 Apr 11 17:57 | 2026 Apr 08 10:25:55 | 74.0080 | 0.00061 | 22.8939 | 121.6506 | 320.0747 | 14.63371 | 6.243 |
| 2026 Apr 10 17:58 | 2026 Apr 08 10:25:55 | 74.0080 | 0.00061 | 22.8939 | 121.6506 | 320.0747 | 14.63371 | 6.243 |
| 2026 Apr 09 18:01 | 2026 Apr 08 10:25:55 | 74.0080 | 0.00061 | 22.8939 | 121.6506 | 320.0747 | 14.63371 | 6.243 |